createdAt,value
2019-02-07T00:02:25.734Z,99.90
2019-02-07T00:04:55.346Z,99.90
2019-02-07T00:07:31.899Z,99.90
2019-02-07T00:10:07.163Z,99.90
2019-02-07T00:12:36.388Z,99.90
2019-02-07T00:15:07.343Z,99.90
2019-02-07T00:17:39.467Z,99.90
2019-02-07T00:20:09.252Z,99.90
2019-02-07T00:22:39.418Z,99.90
2019-02-07T00:25:10.441Z,99.90
2019-02-07T00:27:39.609Z,99.90
2019-02-07T00:30:14.363Z,99.90
2019-02-07T00:32:48.990Z,99.90
2019-02-07T00:35:18.564Z,99.90
2019-02-07T00:37:47.793Z,99.90
2019-02-07T00:40:16.831Z,99.90
2019-02-07T00:42:49.434Z,99.90
2019-02-07T00:45:18.762Z,99.90
2019-02-07T00:47:47.896Z,99.90
2019-02-07T00:50:19.170Z,99.90
2019-02-07T00:52:48.350Z,99.90
2019-02-07T00:55:19.066Z,99.90
2019-02-07T00:57:49.893Z,99.90
2019-02-07T01:00:21.869Z,99.90
2019-02-07T01:02:51.327Z,99.90
2019-02-07T01:05:22.822Z,99.90
2019-02-07T01:08:09.589Z,99.90
2019-02-07T01:10:40.948Z,99.90
2019-02-07T01:13:17.526Z,99.90
2019-02-07T01:15:47.152Z,99.90
2019-02-07T01:18:16.701Z,99.90
2019-02-07T01:20:50.381Z,99.90
2019-02-07T01:23:17.322Z,99.90
2019-02-07T01:25:52.506Z,99.90
2019-02-07T01:28:23.684Z,99.90
2019-02-07T01:30:52.856Z,99.90
2019-02-07T01:33:24.264Z,99.90
2019-02-07T01:35:53.140Z,99.90
2019-02-07T01:38:25.328Z,99.90
2019-02-07T01:40:54.915Z,99.90
2019-02-07T01:43:25.490Z,99.90
2019-02-07T01:45:55.019Z,99.90
2019-02-07T01:48:24.054Z,99.90
2019-02-07T01:50:55.546Z,99.90
2019-02-07T01:53:26.385Z,99.90
2019-02-07T01:55:55.561Z,99.90
2019-02-07T01:58:28.094Z,99.90
2019-02-07T02:00:57.468Z,99.90
2019-02-07T02:03:28.986Z,99.90
2019-02-07T02:06:15.599Z,99.90
2019-02-07T02:08:47.492Z,99.90
2019-02-07T02:11:16.709Z,99.90
2019-02-07T02:13:45.986Z,99.90
2019-02-07T02:16:15.554Z,99.90
2019-02-07T02:18:44.854Z,99.90
2019-02-07T02:21:13.744Z,99.90
2019-02-07T02:23:42.875Z,99.90
2019-02-07T02:26:12.350Z,99.90
2019-02-07T02:28:48.226Z,99.90
2019-02-07T02:31:21.802Z,99.90
2019-02-07T02:33:55.267Z,99.90
2019-02-07T02:36:24.687Z,99.90
2019-02-07T02:38:54.213Z,99.90
2019-02-07T02:41:23.937Z,99.90
2019-02-07T02:43:56.671Z,99.90
2019-02-07T02:46:27.517Z,99.90
2019-02-07T02:48:58.905Z,99.90
2019-02-07T02:51:32.666Z,99.90
2019-02-07T02:54:05.401Z,99.90
2019-02-07T02:56:39.053Z,99.90
2019-02-07T02:59:11.510Z,99.90
2019-02-07T03:01:56.234Z,99.90
2019-02-07T03:04:32.518Z,99.90
2019-02-07T03:07:29.864Z,99.90
2019-02-07T03:10:32.444Z,99.90
2019-02-07T03:13:19.611Z,99.90
2019-02-07T03:16:04.138Z,99.90
2019-02-07T03:18:53.222Z,99.90
2019-02-07T03:21:56.700Z,99.90
2019-02-07T03:24:46.615Z,99.90
2019-02-07T03:27:33.610Z,99.90
2019-02-07T03:30:19.242Z,99.90
2019-02-07T03:33:24.169Z,99.90
2019-02-07T03:36:18.199Z,99.90
2019-02-07T03:39:06.839Z,99.90
2019-02-07T03:41:53.736Z,99.90
2019-02-07T03:44:33.334Z,99.90
2019-02-07T03:47:43.480Z,99.90
2019-02-07T03:50:34.582Z,99.90
2019-02-07T03:53:17.114Z,99.90
2019-02-07T03:56:20.370Z,99.90
2019-02-07T03:59:16.240Z,99.90
2019-02-07T04:02:10.965Z,99.90
2019-02-07T04:05:08.269Z,99.90
2019-02-07T04:08:03.880Z,99.90
2019-02-07T04:10:51.635Z,99.90
2019-02-07T04:13:36.098Z,99.90
2019-02-07T04:16:33.798Z,99.90
2019-02-07T04:19:32.394Z,99.90
2019-02-07T04:22:28.483Z,99.90
2019-02-07T04:25:28.986Z,99.90
2019-02-07T04:28:15.968Z,99.90
2019-02-07T04:30:54.757Z,99.90
2019-02-07T04:33:37.244Z,99.90
2019-02-07T04:36:28.474Z,99.90
2019-02-07T04:39:21.071Z,99.90
2019-02-07T04:42:07.650Z,99.90
2019-02-07T04:45:02.586Z,99.90
2019-02-07T04:47:57.900Z,99.90
2019-02-07T04:50:35.959Z,99.90
2019-02-07T04:53:14.597Z,99.90
2019-02-07T04:56:09.085Z,99.90
2019-02-07T04:59:06.136Z,99.90
2019-02-07T05:01:43.484Z,99.90
2019-02-07T05:04:34.544Z,99.90
2019-02-07T05:07:28.618Z,99.90
2019-02-07T05:10:15.340Z,99.90
2019-02-07T05:13:05.489Z,99.90
2019-02-07T05:16:03.536Z,99.90
2019-02-07T05:18:52.734Z,99.90
2019-02-07T05:21:41.050Z,99.90
2019-02-07T05:24:25.047Z,99.90
2019-02-07T05:27:11.807Z,99.90
2019-02-07T05:29:50.964Z,99.90
2019-02-07T05:32:57.966Z,99.90
2019-02-07T05:35:44.699Z,99.90
2019-02-07T05:38:41.785Z,99.90
2019-02-07T05:41:29.888Z,99.90
2019-02-07T05:44:32.536Z,99.90
2019-02-07T05:47:32.772Z,99.90
2019-02-07T05:50:36.039Z,99.90
2019-02-07T05:53:36.410Z,99.90
2019-02-07T05:56:28.518Z,99.90
2019-02-07T05:59:11.742Z,99.90
2019-02-07T06:01:53.609Z,99.90
2019-02-07T06:04:40.663Z,99.90
2019-02-07T06:07:27.157Z,99.90
2019-02-07T06:10:07.358Z,99.90
2019-02-07T06:12:48.976Z,99.90
2019-02-07T06:15:35.734Z,99.90
2019-02-07T06:18:27.318Z,99.90
2019-02-07T06:21:07.930Z,99.90
2019-02-07T06:23:54.860Z,99.90
2019-02-07T06:26:43.346Z,99.90
2019-02-07T06:29:21.940Z,99.90
2019-02-07T06:32:10.351Z,99.90
2019-02-07T06:35:02.110Z,99.90
2019-02-07T06:37:55.694Z,99.90
2019-02-07T06:40:46.764Z,99.90
2019-02-07T06:43:38.215Z,99.90
2019-02-07T06:46:30.313Z,99.90
2019-02-07T06:49:15.254Z,99.90
2019-02-07T06:52:09.263Z,99.90
2019-02-07T06:55:07.929Z,99.90
2019-02-07T06:57:54.890Z,99.90
2019-02-07T07:00:41.464Z,99.90
2019-02-07T07:03:42.466Z,99.90
2019-02-07T07:06:28.264Z,99.90
2019-02-07T07:09:10.953Z,99.90
2019-02-07T07:12:10.403Z,99.90
2019-02-07T07:14:58.664Z,99.90
2019-02-07T07:17:52.952Z,99.90
2019-02-07T07:20:34.077Z,99.90
2019-02-07T07:23:19.194Z,99.90
2019-02-07T07:26:19.353Z,99.90
2019-02-07T07:29:06.383Z,99.90
2019-02-07T07:32:09.480Z,99.90
2019-02-07T07:34:56.842Z,99.90
2019-02-07T07:37:47.670Z,99.90
2019-02-07T07:40:37.609Z,99.90
2019-02-07T07:43:31.846Z,99.90
2019-02-07T07:46:11.031Z,99.90
2019-02-07T07:48:59.340Z,99.90
2019-02-07T07:51:46.205Z,99.90
2019-02-07T07:58:05.547Z,99.90
2019-02-07T08:00:52.663Z,99.90
2019-02-07T08:03:40.403Z,99.90
2019-02-07T08:06:20.361Z,99.90
2019-02-07T08:09:04.679Z,99.90
2019-02-07T08:12:10.530Z,99.90
2019-02-07T08:14:57.143Z,99.90
2019-02-07T08:17:47.537Z,99.90
2019-02-07T08:20:33.626Z,99.90
2019-02-07T08:23:21.930Z,99.90
2019-02-07T08:26:04.955Z,99.90
2019-02-07T08:29:01.946Z,99.90
2019-02-07T08:31:50.117Z,99.90
2019-02-07T08:34:37.449Z,99.90
2019-02-07T08:37:24.504Z,99.90
2019-02-07T08:40:18.205Z,99.90
2019-02-07T08:43:05.638Z,99.90
2019-02-07T08:46:12.637Z,99.90
2019-02-07T08:49:12.666Z,99.90
2019-02-07T08:52:09.620Z,99.90
2019-02-07T08:55:04.528Z,99.90
2019-02-07T08:57:41.714Z,99.90
2019-02-07T09:00:27.533Z,99.90
2019-02-07T09:03:14.685Z,99.90
2019-02-07T09:06:08.926Z,99.90
2019-02-07T09:08:55.826Z,99.90
2019-02-07T09:11:52.141Z,99.90
2019-02-07T09:14:47.188Z,99.90
2019-02-07T09:17:26.524Z,99.90
2019-02-07T09:20:16.155Z,99.90
2019-02-07T09:22:59.515Z,99.90
2019-02-07T09:25:40.221Z,99.90
2019-02-07T09:28:18.260Z,99.90
2019-02-07T09:31:12.809Z,99.90
2019-02-07T09:33:59.400Z,99.90
2019-02-07T09:36:42.867Z,99.90
2019-02-07T09:39:29.541Z,99.90
2019-02-07T09:42:14.559Z,99.90
2019-02-07T09:45:01.358Z,99.90
2019-02-07T09:47:53.452Z,99.90
2019-02-07T09:50:41.734Z,99.90
2019-02-07T09:53:28.815Z,99.90
2019-02-07T09:56:17.083Z,99.90
2019-02-07T09:59:17.343Z,99.90
2019-02-07T10:02:05.874Z,99.90
2019-02-07T10:05:02.506Z,99.90
2019-02-07T10:07:41.889Z,99.90
2019-02-07T10:10:33.392Z,99.90
2019-02-07T10:13:39.868Z,99.90
2019-02-07T10:16:23.108Z,99.90
2019-02-07T10:19:14.981Z,99.90
2019-02-07T10:22:01.421Z,99.90
2019-02-07T10:24:55.622Z,99.90
2019-02-07T10:27:49.601Z,99.90
2019-02-07T10:30:36.611Z,99.90
2019-02-07T10:33:20.805Z,99.90
2019-02-07T10:36:07.415Z,99.90
2019-02-07T10:38:55.582Z,99.90
2019-02-07T10:41:59.990Z,99.90
2019-02-07T10:45:06.177Z,99.90
2019-02-07T10:47:56.440Z,99.70
2019-02-07T10:50:53.489Z,99.80
2019-02-07T10:53:31.809Z,99.70
2019-02-07T10:56:14.108Z,99.30
2019-02-07T10:59:11.405Z,99.00
2019-02-07T11:01:58.124Z,98.90
2019-02-07T11:04:46.401Z,98.30
2019-02-07T11:07:31.517Z,97.60
2019-02-07T11:10:22.894Z,96.90
2019-02-07T11:13:19.935Z,96.40
2019-02-07T11:16:20.186Z,95.80
2019-02-07T11:19:21.458Z,95.30
2019-02-07T11:22:03.588Z,93.70
2019-02-07T11:25:10.117Z,92.90
2019-02-07T11:28:10.257Z,92.10
2019-02-07T11:31:14.125Z,91.00
2019-02-07T11:34:06.880Z,89.60
2019-02-07T11:36:54.423Z,89.00
2019-02-07T11:39:48.708Z,85.00
2019-02-07T11:42:37.005Z,79.40
2019-02-07T11:45:26.865Z,78.00
2019-02-07T11:48:26.058Z,76.70
2019-02-07T11:51:19.597Z,77.20
2019-02-07T11:53:57.141Z,74.00
2019-02-07T11:56:37.303Z,74.50
2019-02-07T11:59:25.505Z,75.30
2019-02-07T12:02:16.311Z,72.70
2019-02-07T12:04:57.479Z,73.40
2019-02-07T12:07:45.527Z,70.80
2019-02-07T12:10:30.469Z,70.80
2019-02-07T12:13:21.646Z,69.80
2019-02-07T12:16:09.760Z,69.60
2019-02-07T12:19:03.564Z,70.90
2019-02-07T12:21:49.258Z,70.70
2019-02-07T12:24:35.661Z,69.30
2019-02-07T12:27:23.047Z,68.20
2019-02-07T12:30:01.443Z,66.60
2019-02-07T12:32:45.417Z,67.70
2019-02-07T12:35:33.305Z,68.00
2019-02-07T12:38:21.488Z,68.00
2019-02-07T12:41:15.856Z,68.70
2019-02-07T12:44:04.579Z,70.00
2019-02-07T12:46:55.846Z,67.20
2019-02-07T12:49:47.668Z,66.70
2019-02-07T12:52:37.947Z,63.70
2019-02-07T12:55:19.311Z,63.00
2019-02-07T12:58:06.075Z,60.90
2019-02-07T13:00:55.085Z,61.10
2019-02-07T13:03:41.564Z,61.30
2019-02-07T13:06:35.538Z,61.20
2019-02-07T13:09:28.212Z,60.60
2019-02-07T13:12:31.241Z,60.10
2019-02-07T13:15:11.930Z,61.00
2019-02-07T13:17:58.459Z,62.00
2019-02-07T13:20:43.577Z,62.80
2019-02-07T13:23:30.317Z,64.20
2019-02-07T13:26:24.345Z,63.10
2019-02-07T13:29:19.461Z,64.10
2019-02-07T13:32:07.417Z,65.10
2019-02-07T13:35:01.140Z,63.20
2019-02-07T13:37:45.503Z,64.50
2019-02-07T13:40:32.350Z,65.00
2019-02-07T13:43:18.765Z,64.70
2019-02-07T13:46:15.632Z,64.60
2019-02-07T13:49:01.334Z,65.30
2019-02-07T13:51:43.272Z,66.70
2019-02-07T13:54:22.759Z,68.40
2019-02-07T13:57:17.224Z,70.00
2019-02-07T14:00:03.680Z,70.50
2019-02-07T14:02:41.320Z,72.40
2019-02-07T14:05:32.614Z,74.10
2019-02-07T14:08:23.459Z,74.70
2019-02-07T14:11:10.269Z,75.90
2019-02-07T14:13:55.409Z,76.50
2019-02-07T14:16:42.299Z,77.30
2019-02-07T14:19:29.410Z,79.10
2019-02-07T14:22:25.623Z,80.50
2019-02-07T14:25:12.007Z,82.80
2019-02-07T14:27:58.493Z,88.00
2019-02-07T14:30:42.673Z,90.20
2019-02-07T14:33:36.800Z,93.10
2019-02-07T14:36:39.820Z,97.20
2019-02-07T14:39:46.990Z,98.70
2019-02-07T14:42:39.844Z,99.70
2019-02-07T14:45:39.463Z,99.90
2019-02-07T14:48:11.116Z,99.90
2019-02-07T14:50:40.099Z,99.90
2019-02-07T14:53:09.116Z,99.90
2019-02-07T14:55:38.186Z,99.90
2019-02-07T14:58:07.284Z,99.90
2019-02-07T15:00:39.412Z,99.90
2019-02-07T15:03:08.418Z,99.90
2019-02-07T15:05:37.400Z,99.90
2019-02-07T15:08:06.459Z,99.90
2019-02-07T15:10:37.647Z,99.90
2019-02-07T15:13:06.966Z,99.90
2019-02-07T15:15:36.610Z,99.90
2019-02-07T15:18:06.058Z,99.90
2019-02-07T15:20:35.026Z,99.90
2019-02-07T15:23:04.088Z,99.90
2019-02-07T15:25:33.870Z,99.90
2019-02-07T15:28:05.728Z,99.90
2019-02-07T15:30:34.835Z,99.90
2019-02-07T15:33:04.301Z,99.90
2019-02-07T15:35:38.747Z,99.90
2019-02-07T15:38:08.148Z,99.90
2019-02-07T15:40:37.547Z,99.90
2019-02-07T15:43:07.087Z,99.90
2019-02-07T15:45:36.247Z,99.90
2019-02-07T15:48:08.330Z,99.90
2019-02-07T15:50:38.462Z,99.90
2019-02-07T15:53:07.651Z,99.90
2019-02-07T15:55:36.609Z,99.90
2019-02-07T15:58:05.729Z,99.90
2019-02-07T16:00:52.702Z,99.90
2019-02-07T16:03:43.755Z,99.90
2019-02-07T16:06:13.212Z,99.90
2019-02-07T16:08:42.404Z,99.90
2019-02-07T16:11:11.391Z,99.90
2019-02-07T16:13:40.338Z,99.90
2019-02-07T16:16:09.499Z,99.90
2019-02-07T16:18:41.888Z,99.90
2019-02-07T16:21:11.012Z,99.90
2019-02-07T16:23:40.937Z,99.90
2019-02-07T16:26:11.235Z,99.90
2019-02-07T16:28:40.272Z,99.90
2019-02-07T16:31:12.955Z,99.90
2019-02-07T16:33:41.939Z,99.90
2019-02-07T16:36:11.453Z,99.90
2019-02-07T16:38:40.501Z,99.90
2019-02-07T16:41:10.586Z,99.90
2019-02-07T16:43:39.537Z,99.90
2019-02-07T16:46:08.517Z,99.90
2019-02-07T16:48:37.869Z,99.90
2019-02-07T16:51:07.406Z,99.90
2019-02-07T16:53:36.387Z,99.90
2019-02-07T16:56:05.622Z,99.90
2019-02-07T16:58:34.526Z,99.90
2019-02-07T17:01:05.410Z,99.90
2019-02-07T17:03:34.957Z,99.90
2019-02-07T17:06:04.639Z,99.90
2019-02-07T17:08:40.319Z,99.90
2019-02-07T17:11:09.990Z,99.90
2019-02-07T17:13:41.007Z,99.90
2019-02-07T17:16:10.189Z,99.90
2019-02-07T17:18:41.656Z,99.90
2019-02-07T17:21:12.466Z,99.90
2019-02-07T17:23:41.660Z,99.90
2019-02-07T17:26:10.627Z,99.90
2019-02-07T17:28:39.676Z,99.90
2019-02-07T17:31:10.863Z,99.90
2019-02-07T17:33:52.361Z,99.90
2019-02-07T17:36:59.600Z,99.90
2019-02-07T17:39:28.730Z,99.90
2019-02-07T17:41:59.472Z,99.90
2019-02-07T17:44:28.470Z,99.90
2019-02-07T17:46:57.417Z,99.90
2019-02-07T17:49:26.672Z,99.90
2019-02-07T17:51:56.112Z,99.90
2019-02-07T17:54:25.122Z,99.90
2019-02-07T17:56:56.282Z,99.90
2019-02-07T17:59:25.394Z,99.90
2019-02-07T18:01:54.361Z,99.90
2019-02-07T18:04:23.470Z,99.90
2019-02-07T18:06:52.332Z,99.90
2019-02-07T18:09:22.921Z,99.90
2019-02-07T18:11:55.050Z,99.90
2019-02-07T18:14:24.047Z,99.90
2019-02-07T18:16:52.984Z,99.90
2019-02-07T18:19:22.085Z,99.90
2019-02-07T18:21:50.900Z,99.90
2019-02-07T18:24:19.819Z,99.90
2019-02-07T18:26:48.718Z,99.90
2019-02-07T18:29:17.701Z,99.90
2019-02-07T18:31:46.574Z,99.90
2019-02-07T18:34:15.558Z,99.90
2019-02-07T18:36:44.480Z,99.90
2019-02-07T18:39:13.395Z,99.90
2019-02-07T18:41:42.340Z,99.90
2019-02-07T18:44:11.703Z,99.90
2019-02-07T18:46:40.524Z,99.90
2019-02-07T18:49:09.461Z,99.90
2019-02-07T18:51:45.094Z,99.90
2019-02-07T18:54:09.098Z,99.90
2019-02-07T18:56:38.044Z,99.90
2019-02-07T18:59:07.267Z,99.90
2019-02-07T19:01:36.386Z,99.90
2019-02-07T19:04:05.532Z,99.90
2019-02-07T19:06:34.502Z,99.90
2019-02-07T19:09:05.082Z,99.90
2019-02-07T19:11:34.027Z,99.90
2019-02-07T19:14:03.018Z,99.90
2019-02-07T19:16:31.955Z,99.90
2019-02-07T19:19:00.778Z,99.90
2019-02-07T19:21:29.724Z,99.90
2019-02-07T19:23:58.979Z,99.90
2019-02-07T19:26:28.022Z,99.90
2019-02-07T19:28:57.021Z,99.90
2019-02-07T19:31:31.287Z,99.90
2019-02-07T19:34:00.391Z,99.90
2019-02-07T19:36:29.332Z,99.90
2019-02-07T19:38:58.332Z,99.90
2019-02-07T19:41:27.400Z,99.90
2019-02-07T19:43:56.473Z,99.90
2019-02-07T19:46:25.575Z,99.90
2019-02-07T19:48:54.932Z,99.90
2019-02-07T19:51:27.182Z,99.90
2019-02-07T19:53:56.457Z,99.90
2019-02-07T19:56:25.435Z,99.90
2019-02-07T19:58:54.274Z,99.90
2019-02-07T20:01:23.604Z,99.90
2019-02-07T20:03:52.594Z,99.90
2019-02-07T20:06:21.569Z,99.90
2019-02-07T20:08:50.626Z,99.90
2019-02-07T20:11:19.749Z,99.90
2019-02-07T20:13:48.710Z,99.90
2019-02-07T20:16:17.826Z,99.90
2019-02-07T20:18:47.112Z,99.90
2019-02-07T20:21:16.075Z,99.90
2019-02-07T20:23:45.186Z,99.90
2019-02-07T20:26:14.457Z,99.90
2019-02-07T20:28:43.616Z,99.90
2019-02-07T20:31:12.624Z,99.90
2019-02-07T20:33:41.763Z,99.90
2019-02-07T20:36:11.197Z,99.90
2019-02-07T20:38:40.248Z,99.90
2019-02-07T20:41:09.190Z,99.90
2019-02-07T20:43:38.646Z,99.90
2019-02-07T20:46:07.614Z,99.90
2019-02-07T20:48:36.759Z,99.90
2019-02-07T20:51:08.061Z,99.90
2019-02-07T20:53:38.858Z,99.90
2019-02-07T20:56:07.879Z,99.90
2019-02-07T20:58:38.408Z,99.90
2019-02-07T21:01:08.772Z,99.90
2019-02-07T21:03:37.705Z,99.90
2019-02-07T21:06:06.806Z,99.90
2019-02-07T21:08:35.974Z,99.90
2019-02-07T21:11:05.085Z,99.90
2019-02-07T21:13:37.645Z,99.90
2019-02-07T21:16:06.538Z,99.90
2019-02-07T21:18:35.624Z,99.90
2019-02-07T21:21:04.829Z,99.90
2019-02-07T21:23:34.233Z,99.90
2019-02-07T21:26:03.444Z,99.90
2019-02-07T21:28:32.393Z,99.90
2019-02-07T21:31:02.177Z,99.90
2019-02-07T21:33:31.203Z,99.90
2019-02-07T21:36:00.432Z,99.90
2019-02-07T21:38:29.397Z,99.90
2019-02-07T21:40:58.391Z,99.90
2019-02-07T21:43:27.555Z,99.90
2019-02-07T21:45:59.351Z,99.90
2019-02-07T21:48:29.426Z,99.90
2019-02-07T21:50:58.318Z,99.90
2019-02-07T21:53:27.459Z,99.90
2019-02-07T21:55:56.718Z,99.90
2019-02-07T21:58:26.153Z,99.90
2019-02-07T22:00:55.210Z,99.90
2019-02-07T22:03:24.267Z,99.90
2019-02-07T22:05:53.245Z,99.90
2019-02-07T22:08:22.342Z,99.90
2019-02-07T22:10:51.571Z,99.90
2019-02-07T22:13:20.835Z,99.90
2019-02-07T22:15:52.341Z,99.90
2019-02-07T22:18:21.298Z,99.90
2019-02-07T22:20:50.264Z,99.90
2019-02-07T22:23:19.987Z,99.90
2019-02-07T22:25:49.545Z,99.90
2019-02-07T22:28:18.672Z,99.90
2019-02-07T22:30:51.353Z,99.90
2019-02-07T22:33:21.258Z,99.90
2019-02-07T22:35:51.543Z,99.90
2019-02-07T22:38:21.781Z,99.90
2019-02-07T22:43:42.651Z,99.90
2019-02-07T22:46:12.532Z,99.90
2019-02-07T22:48:41.859Z,99.90
2019-02-07T22:51:12.026Z,99.90
2019-02-07T22:53:42.640Z,99.90
2019-02-07T22:56:12.078Z,99.90
2019-02-07T22:58:41.825Z,99.90
2019-02-07T23:01:21.472Z,99.90
2019-02-07T23:03:52.978Z,99.90
2019-02-07T23:06:22.206Z,99.90
2019-02-07T23:08:55.927Z,99.90
2019-02-07T23:11:25.497Z,99.90
2019-02-07T23:13:54.846Z,99.90
2019-02-07T23:16:24.522Z,99.90
2019-02-07T23:18:55.804Z,99.90
2019-02-07T23:21:24.899Z,99.90
2019-02-07T23:23:54.080Z,99.90
2019-02-07T23:26:23.154Z,99.90
2019-02-07T23:29:11.264Z,99.90
2019-02-07T23:31:42.053Z,99.90
2019-02-07T23:34:11.095Z,99.90
2019-02-07T23:36:40.292Z,99.90
2019-02-07T23:39:12.741Z,99.90
2019-02-07T23:41:41.654Z,99.90
2019-02-07T23:44:10.899Z,99.90
2019-02-07T23:46:43.110Z,99.90
2019-02-07T23:49:12.463Z,99.90
2019-02-07T23:51:41.977Z,99.90
2019-02-07T23:54:11.117Z,99.90
2019-02-07T23:56:40.024Z,99.90
2019-02-07T23:59:09.471Z,99.90
